Time;durP1;ratioP1;P1;durP2;ratioP2;P2;SDS_P1;SDS_P2;PMS_P1;PMS_P2;Temp;Humidity;BMP_temperature;BMP_pressure;BME280_temperature;BME280_humidity;BME280_pressure;Samples;Min_cycle;Max_cycle;Signal;HPM_P1;HPM_P2
2021/09/01 00:03:13;;;;;;;5.75;4.85;;;;;;;13.99;100.00;98794.08;4029037;86;21137;-84
2021/09/01 00:09:16;;;;;;;6.78;5.60;;;;;;;13.97;100.00;98795.86;4065945;86;21098;-84
2021/09/01 00:15:17;;;;;;;7.62;5.72;;;;;;;13.93;100.00;98797.86;4107299;85;21122;-85
2021/09/01 00:21:19;;;;;;;10.60;5.92;;;;;;;13.90;100.00;98802.00;4114713;85;21063;-84
2021/09/01 00:27:20;;;;;;;9.08;6.28;;;;;;;13.90;100.00;98810.26;4086048;86;21570;-83
2021/09/01 00:33:21;;;;;;;9.73;5.83;;;;;;;13.90;100.00;98811.05;4116195;85;21508;-84
2021/09/01 00:39:25;;;;;;;10.82;5.58;;;;;;;13.89;100.00;98812.22;4083288;86;21546;-83
2021/09/01 00:45:26;;;;;;;7.58;5.12;;;;;;;13.86;100.00;98815.77;4106205;85;21078;-83
2021/09/01 00:51:27;;;;;;;6.95;4.58;;;;;;;13.85;100.00;98827.18;4075719;86;21055;-84
2021/09/01 00:57:29;;;;;;;6.25;4.05;;;;;;;13.83;100.00;98828.95;4103899;85;21059;-87
2021/09/01 01:03:31;;;;;;;6.05;3.80;;;;;;;13.83;100.00;98832.28;4076017;86;21079;-83
2021/09/01 01:09:34;;;;;;;4.25;2.55;;;;;;;13.80;100.00;98838.02;4086174;86;21106;-86
2021/09/01 01:15:40;;;;;;;4.17;2.45;;;;;;;13.76;100.00;98839.22;4106314;85;21451;-83
2021/09/01 01:21:41;;;;;;;6.10;2.72;;;;;;;13.75;100.00;98848.66;4076778;86;21178;-83
2021/09/01 01:27:44;;;;;;;7.62;2.37;;;;;;;13.76;100.00;98840.59;4107194;85;21114;-83
2021/09/01 01:33:46;;;;;;;6.60;2.27;;;;;;;13.76;100.00;98848.84;4112112;85;21591;-84
2021/09/01 01:39:47;;;;;;;5.90;2.17;;;;;;;13.73;100.00;98851.78;4113665;85;21080;-84
2021/09/01 01:45:48;;;;;;;7.90;2.80;;;;;;;13.71;100.00;98854.75;4065863;86;21043;-83
2021/09/01 01:51:52;;;;;;;7.28;2.85;;;;;;;13.74;100.00;98855.33;4040652;87;22329;-83
2021/09/01 01:57:53;;;;;;;8.93;3.25;;;;;;;13.73;100.00;98860.03;4051581;87;21010;-86
2021/09/01 02:03:56;;;;;;;7.08;3.20;;;;;;;13.74;100.00;98860.25;4109461;85;21103;-84
2021/09/01 02:09:59;;;;;;;5.97;2.95;;;;;;;13.71;100.00;98862.42;4111036;85;21110;-83
2021/09/01 02:16:01;;;;;;;2.20;1.50;;;;;;;13.68;100.00;98861.84;4088638;86;21098;-83
2021/09/01 02:22:03;;;;;;;4.65;1.82;;;;;;;13.64;100.00;98855.55;4112737;85;21468;-83
2021/09/01 02:28:04;;;;;;;3.45;2.10;;;;;;;13.59;100.00;98854.58;4111461;85;21063;-83
2021/09/01 02:34:07;;;;;;;4.25;1.85;;;;;;;13.55;100.00;98864.03;4114163;85;21044;-83
2021/09/01 02:40:09;;;;;;;5.55;2.50;;;;;;;13.50;100.00;98865.22;4115194;85;22283;-84
2021/09/01 02:46:17;;;;;;;4.12;1.80;;;;;;;13.46;100.00;98867.21;4112629;85;21025;-83
2021/09/01 02:52:18;;;;;;;6.10;2.22;;;;;;;13.43;100.00;98877.62;4112366;85;21634;-83
2021/09/01 02:58:19;;;;;;;2.87;2.08;;;;;;;13.38;100.00;98880.77;4112918;85;21692;-82
2021/09/01 03:04:22;;;;;;;8.70;3.00;;;;;;;13.35;100.00;98891.19;4115553;85;21107;-82
2021/09/01 03:10:23;;;;;;;6.08;2.98;;;;;;;13.32;100.00;98893.94;4120979;85;21040;-83
2021/09/01 03:23:02;;;;;;;6.42;3.72;;;;;;;13.33;100.00;98898.25;4084945;86;21121;-83
2021/09/01 03:29:03;;;;;;;6.45;3.90;;;;;;;13.31;100.00;98900.62;4118475;85;21083;-83
2021/09/01 03:35:06;;;;;;;5.10;3.83;;;;;;;13.29;100.00;98904.36;4121107;85;21031;-82
2021/09/01 03:41:07;;;;;;;6.08;3.98;;;;;;;13.28;100.00;98913.18;4119638;85;21064;-82
2021/09/01 03:47:09;;;;;;;5.62;3.22;;;;;;;13.29;100.00;98920.27;4088060;86;21590;-83
2021/09/01 03:53:10;;;;;;;5.45;3.85;;;;;;;13.28;100.00;98924.79;4120251;85;21130;-82
2021/09/01 03:59:16;;;;;;;6.10;4.20;;;;;;;13.26;100.00;98931.26;4120404;85;21098;-82
2021/09/01 04:05:17;;;;;;;8.08;4.10;;;;;;;13.26;100.00;98938.13;4106568;85;21563;-82
2021/09/01 04:11:19;;;;;;;8.58;4.22;;;;;;;13.26;100.00;98943.05;4098128;85;21653;-82
2021/09/01 04:17:35;;;;;;;5.78;4.03;;;;;;;13.27;100.00;98948.73;4054147;86;21106;-82
2021/09/01 04:23:36;;;;;;;7.70;3.85;;;;;;;13.26;100.00;98945.80;4184501;83;21082;-83
2021/09/01 04:29:38;;;;;;;5.40;3.40;;;;;;;13.28;100.00;98964.04;4182772;83;21088;-82
2021/09/01 04:36:01;;;;;;;4.45;3.25;;;;;;;13.29;100.00;98960.70;4181475;83;21074;-82
2021/09/01 04:42:04;;;;;;;3.72;2.67;;;;;;;13.27;100.00;98973.47;4184874;83;21083;-83
2021/09/01 04:48:05;;;;;;;5.62;2.50;;;;;;;13.28;100.00;98986.64;4183591;83;21143;-83
2021/09/01 04:54:07;;;;;;;4.45;2.98;;;;;;;13.27;100.00;98991.34;4181745;83;21358;-83
2021/09/01 05:00:09;;;;;;;5.67;3.70;;;;;;;13.27;100.00;98999.59;4099796;85;21141;-82
2021/09/01 05:06:11;;;;;;;3.67;3.08;;;;;;;13.28;100.00;99001.76;4097920;85;21096;-82
2021/09/01 05:12:12;;;;;;;4.83;3.30;;;;;;;13.26;100.00;99011.77;4036864;87;21048;-83
2021/09/01 05:18:14;;;;;;;6.78;3.40;;;;;;;13.27;100.00;99014.70;4027143;87;21505;-85
2021/09/01 05:24:31;;;;;;;4.05;3.40;;;;;;;13.28;100.00;99018.25;4053768;86;21064;-83
2021/09/01 05:30:36;;;;;;;5.78;3.90;;;;;;;13.29;100.00;99021.19;4095893;85;21061;-82
2021/09/01 05:36:38;;;;;;;7.17;3.90;;;;;;;13.28;100.00;99023.75;4079377;85;21606;-83
2021/09/01 05:42:41;;;;;;;6.40;4.05;;;;;;;13.28;100.00;99025.89;4101867;85;21045;-82
2021/09/01 05:48:44;;;;;;;10.38;6.00;;;;;;;13.29;100.00;99029.44;4100854;85;22380;-82
2021/09/01 05:54:50;;;;;;;8.60;6.35;;;;;;;13.28;100.00;99036.12;4054963;86;21064;-83
2021/09/01 06:00:57;;;;;;;9.53;7.00;;;;;;;13.29;100.00;99044.56;4092670;85;21618;-83
2021/09/01 06:07:02;;;;;;;6.22;4.95;;;;;;;13.31;100.00;99047.09;4101125;85;22189;-84
2021/09/01 06:13:08;;;;;;;7.30;5.47;;;;;;;13.30;100.00;99055.16;4087665;85;21074;-83
2021/09/01 06:19:09;;;;;;;8.00;5.20;;;;;;;13.30;100.00;99063.41;4096259;85;21615;-83
2021/09/01 06:25:11;;;;;;;7.92;5.62;;;;;;;13.31;100.00;99059.47;4028916;87;21105;-82
2021/09/01 06:31:12;;;;;;;7.15;4.75;;;;;;;13.33;100.00;99075.58;4096918;85;21633;-83
2021/09/01 06:37:13;;;;;;;7.62;4.75;;;;;;;13.33;100.00;99081.07;4046483;86;21646;-84
2021/09/01 06:43:16;;;;;;;5.85;4.58;;;;;;;13.33;100.00;99092.07;4175235;82;21560;-83
2021/09/01 06:49:23;;;;;;;8.23;5.35;;;;;;;13.34;100.00;99095.80;4185770;83;21634;-82
2021/09/01 06:55:24;;;;;;;7.90;5.37;;;;;;;13.32;100.00;99092.68;4191188;83;21164;-82
2021/09/01 07:01:25;;;;;;;8.13;5.12;;;;;;;13.34;100.00;99100.53;4193267;83;21061;-82
2021/09/01 07:07:27;;;;;;;7.47;4.83;;;;;;;13.34;100.00;99112.30;4194215;83;21605;-83
2021/09/01 07:13:29;;;;;;;7.28;4.92;;;;;;;13.34;100.00;99117.80;4178378;84;21015;-83
2021/09/01 07:19:30;;;;;;;8.00;4.85;;;;;;;13.39;100.00;99119.41;4177317;84;21542;-83
2021/09/01 07:25:33;;;;;;;7.78;5.47;;;;;;;13.40;100.00;99141.59;4174485;84;21617;-83
2021/09/01 07:31:35;;;;;;;6.78;5.75;;;;;;;13.40;100.00;99137.47;4172138;84;22100;-83
2021/09/01 07:37:47;;;;;;;8.85;6.05;;;;;;;13.45;100.00;99146.11;4173897;84;21002;-83
2021/09/01 07:43:49;;;;;;;7.92;6.45;;;;;;;13.48;100.00;99152.80;4169718;82;37776;-83
2021/09/01 07:49:50;;;;;;;6.72;5.90;;;;;;;13.49;100.00;99157.91;4143624;84;21378;-82
2021/09/01 07:55:51;;;;;;;11.22;6.22;;;;;;;13.51;100.00;99172.08;4161078;83;20994;-82
2021/09/01 08:01:53;;;;;;;8.53;6.25;;;;;;;13.48;100.00;99176.98;4157693;84;21005;-83
2021/09/01 08:07:55;;;;;;;8.90;5.55;;;;;;;13.48;100.00;99180.30;4120577;84;21134;-83
2021/09/01 08:13:56;;;;;;;11.38;5.58;;;;;;;13.49;100.00;99181.88;4104780;85;21043;-85
2021/09/01 08:19:58;;;;;;;4.05;3.30;;;;;;;13.51;100.00;99190.52;4081205;85;21047;-83
2021/09/01 08:25:59;;;;;;;6.28;3.00;;;;;;;13.50;100.00;99199.36;4083575;85;22691;-82
2021/09/01 08:32:01;;;;;;;3.80;2.65;;;;;;;13.51;100.00;99207.03;4065714;85;22216;-82
2021/09/01 08:38:03;;;;;;;4.33;2.50;;;;;;;13.54;100.00;99209.00;4086263;85;21040;-82
2021/09/01 08:44:04;;;;;;;5.80;2.70;;;;;;;13.56;100.00;99226.67;4096589;84;21079;-83
2021/09/01 08:50:09;;;;;;;3.20;2.70;;;;;;;13.58;100.00;99231.20;4095941;85;21588;-84
2021/09/01 08:56:10;;;;;;;5.45;3.10;;;;;;;13.60;100.00;99241.82;4099091;85;21138;-83
2021/09/01 09:02:12;;;;;;;4.25;3.37;;;;;;;13.61;100.00;99253.80;4098825;85;21071;-84
2021/09/01 09:08:15;;;;;;;5.25;3.58;;;;;;;13.60;100.00;99261.87;4112339;83;21105;-83
2021/09/01 09:14:37;;;;;;;5.90;3.62;;;;;;;13.62;100.00;99269.73;4127466;83;21061;-83
2021/09/01 09:20:40;;;;;;;5.33;4.08;;;;;;;13.61;100.00;99277.77;4114589;85;21075;-82
2021/09/01 09:26:43;;;;;;;3.98;3.50;;;;;;;13.60;100.00;99280.33;4112124;85;21133;-83
2021/09/01 09:33:12;;;;;;;7.40;4.22;;;;;;;13.55;100.00;99277.95;4120736;85;21074;-82
2021/09/01 09:39:14;;;;;;;6.45;5.03;;;;;;;13.57;100.00;99288.78;4132660;85;21099;-82
2021/09/01 09:45:24;;;;;;;8.65;5.80;;;;;;;13.63;100.00;99287.22;4125451;85;21079;-82
2021/09/01 09:51:43;;;;;;;8.48;6.72;;;;;;;13.74;100.00;99291.38;4130607;83;21543;-82
2021/09/01 09:57:55;;;;;;;8.75;7.00;;;;;;;13.82;100.00;99295.73;4117765;85;21142;-82
2021/09/01 10:03:57;;;;;;;10.38;7.97;;;;;;;13.89;100.00;99297.14;4106775;85;21054;-82
2021/09/01 10:09:58;;;;;;;12.63;10.05;;;;;;;13.95;100.00;99301.84;4105160;84;21089;-83
2021/09/01 10:16:25;;;;;;;11.75;10.25;;;;;;;14.00;100.00;99307.59;4117346;85;21141;-82
2021/09/01 10:22:26;;;;;;;14.15;12.00;;;;;;;14.13;100.00;99312.33;4120902;85;21165;-82
2021/09/01 10:28:35;;;;;;;15.70;12.70;;;;;;;14.32;100.00;99319.46;4113723;85;21051;-83
2021/09/01 10:34:36;;;;;;;17.05;14.28;;;;;;;14.43;100.00;99329.09;4120054;85;21046;-82
2021/09/01 10:40:55;;;;;;;19.35;15.98;;;;;;;14.50;100.00;99329.13;4117720;85;21019;-83
2021/09/01 10:47:02;;;;;;;19.92;14.23;;;;;;;14.58;100.00;99332.84;4110173;85;21021;-82
2021/09/01 10:53:11;;;;;;;18.60;14.30;;;;;;;14.67;100.00;99344.29;3962966;88;21760;-83
2021/09/01 10:59:17;;;;;;;17.73;13.35;;;;;;;14.74;100.00;99348.41;4006359;87;21074;-83
2021/09/01 11:05:24;;;;;;;;;;;;;;;14.92;100.00;99355.30;4007889;87;22281;-84
2021/09/01 11:11:51;;;;;;;16.40;12.83;;;;;;;15.02;100.00;99372.41;3998377;87;20165;-83
2021/09/01 11:18:05;;;;;;;18.80;13.40;;;;;;;15.00;100.00;99379.69;3984527;87;21631;-82
2021/09/01 11:24:09;;;;;;;16.05;13.48;;;;;;;15.04;100.00;99381.08;3981200;87;21042;-84
2021/09/01 11:30:13;;;;;;;15.20;11.85;;;;;;;15.35;100.00;99382.42;4006170;87;21124;-84
2021/09/01 11:36:14;;;;;;;15.70;11.97;;;;;;;15.49;100.00;99388.52;3999843;87;21039;-84
2021/09/01 11:42:17;;;;;;;14.23;11.22;;;;;;;15.42;100.00;99400.38;4000172;87;21070;-84
2021/09/01 11:48:19;;;;;;;14.65;12.03;;;;;;;15.38;100.00;99406.48;3973731;87;21169;-83
2021/09/01 11:54:20;;;;;;;12.60;8.33;;;;;;;15.71;100.00;99400.31;3993162;87;21096;-83
2021/09/01 12:00:22;;;;;;;12.13;7.92;;;;;;;16.09;100.00;99394.62;3991270;87;21062;-83
2021/09/01 12:06:41;;;;;;;11.88;7.90;;;;;;;16.18;100.00;99392.20;4000063;87;21747;-85
2021/09/01 12:12:42;;;;;;;17.30;9.20;;;;;;;16.13;100.00;99392.63;4007095;87;21053;-82
2021/09/01 12:18:53;;;;;;;20.25;8.33;;;;;;;15.94;100.00;99404.17;4003371;87;21101;-84
2021/09/01 12:25:06;;;;;;;15.28;10.03;;;;;;;15.68;100.00;99417.85;3969279;86;29497;-85
2021/09/01 12:31:20;;;;;;;14.78;9.13;;;;;;;15.55;100.00;99415.92;3925849;89;21052;-85
2021/09/01 12:37:37;;;;;;;13.98;9.23;;;;;;;15.58;100.00;99413.75;3930814;88;21043;-86
2021/09/01 12:43:39;;;;;;;11.45;8.63;;;;;;;15.83;100.00;99419.19;3864441;91;21087;-85
2021/09/01 12:49:51;;;;;;;13.38;8.80;;;;;;;15.98;100.00;99420.70;3930691;89;21047;-85
2021/09/01 12:56:06;;;;;;;12.35;8.93;;;;;;;15.93;100.00;99415.00;4010578;87;21034;-85
2021/09/01 13:02:22;;;;;;;17.55;8.60;;;;;;;16.07;100.00;99415.56;4008263;87;21043;-85
2021/09/01 13:08:24;;;;;;;14.05;8.20;;;;;;;16.27;100.00;99416.03;4016706;86;21151;-85
2021/09/01 13:14:25;;;;;;;12.18;7.92;;;;;;;16.46;100.00;99410.03;4056540;86;21122;-85
2021/09/01 13:20:27;;;;;;;14.10;8.00;;;;;;;16.71;100.00;99412.05;4053148;86;21138;-85
2021/09/01 13:26:28;;;;;;;13.30;7.03;;;;;;;16.77;100.00;99409.66;4053281;86;21044;-85
2021/09/01 13:32:30;;;;;;;11.22;7.22;;;;;;;16.65;100.00;99412.88;4062150;86;21047;-85
2021/09/01 13:38:31;;;;;;;15.23;7.00;;;;;;;16.51;100.00;99411.59;4057144;86;21070;-85
2021/09/01 13:44:37;;;;;;;10.58;6.45;;;;;;;16.42;100.00;99427.80;4057637;86;21112;-84
2021/09/01 13:50:43;;;;;;;9.93;6.50;;;;;;;16.56;100.00;99420.25;4059068;86;21116;-85
2021/09/01 13:56:45;;;;;;;12.17;6.00;;;;;;;16.85;99.63;99432.69;4058525;86;21071;-85
2021/09/01 14:03:04;;;;;;;9.18;5.50;;;;;;;17.06;98.37;99429.77;4054082;86;21107;-87
2021/09/01 14:09:08;;;;;;;9.45;6.22;;;;;;;17.05;97.10;99435.09;4050133;86;21184;-85
2021/09/01 14:15:10;;;;;;;13.08;6.03;;;;;;;17.00;96.86;99424.48;4023494;86;21654;-85
2021/09/01 14:21:15;;;;;;;12.88;6.28;;;;;;;16.99;96.25;99428.42;4033338;86;21107;-84
2021/09/01 14:27:16;;;;;;;13.32;6.78;;;;;;;16.98;95.46;99439.31;4045905;86;21086;-85
2021/09/01 14:33:18;;;;;;;13.08;6.70;;;;;;;16.85;94.66;99445.13;4036072;86;21051;-85
2021/09/01 14:39:19;;;;;;;16.90;6.58;;;;;;;16.63;94.17;99443.69;4044450;86;22062;-88
2021/09/01 14:45:22;;;;;;;9.38;6.33;;;;;;;16.41;93.81;99446.96;4038600;86;21067;-87
2021/09/01 14:51:25;;;;;;;10.20;6.78;;;;;;;16.18;93.72;99459.87;4046002;86;21388;-85
2021/09/01 14:57:26;;;;;;;10.10;6.58;;;;;;;16.04;93.51;99456.38;4038034;86;21345;-85
2021/09/01 15:03:32;;;;;;;9.40;6.05;;;;;;;15.90;93.38;99464.12;4046121;86;21084;-85
2021/09/01 15:09:38;;;;;;;12.93;6.27;;;;;;;15.82;93.50;99464.55;4044637;85;21104;-85
2021/09/01 15:15:39;;;;;;;9.73;5.80;;;;;;;15.77;93.30;99458.82;4039635;86;21102;-87
2021/09/01 15:21:43;;;;;;;10.03;6.00;;;;;;;15.70;93.09;99464.38;4029901;86;21063;-85
2021/09/01 15:27:45;;;;;;;10.68;7.00;;;;;;;15.64;93.18;99468.11;4049896;86;21031;-85
2021/09/01 15:33:52;;;;;;;13.30;6.45;;;;;;;15.59;93.21;99473.26;4041999;86;21090;-85
2021/09/01 15:39:53;;;;;;;11.23;6.70;;;;;;;15.54;93.34;99461.23;4043990;86;21123;-85
2021/09/01 15:46:05;;;;;;;10.80;6.37;;;;;;;15.54;93.34;99461.23;4049251;86;21968;-85
2021/09/01 15:52:11;;;;;;;12.75;6.53;;;;;;;15.54;93.50;99453.75;4024859;86;21607;-85
2021/09/01 15:58:14;;;;;;;13.35;6.60;;;;;;;15.59;93.64;99451.98;4043225;86;21717;-85
2021/09/01 16:04:16;;;;;;;12.28;6.55;;;;;;;15.64;93.65;99450.78;4034212;86;21054;-86
2021/09/01 16:10:19;;;;;;;8.30;6.08;;;;;;;15.66;93.67;99446.43;4027131;86;21135;-85
2021/09/01 16:16:25;;;;;;;12.53;6.40;;;;;;;15.64;93.77;99443.89;4009651;87;21067;-84
2021/09/01 16:22:49;;;;;;;9.65;6.15;;;;;;;15.68;93.38;99442.69;4007720;86;21083;-86
2021/09/01 16:28:54;;;;;;;9.75;6.37;;;;;;;15.69;93.47;99450.39;4001869;87;21048;-86
2021/09/01 16:34:59;;;;;;;9.43;5.92;;;;;;;15.68;93.84;99449.59;4006836;87;21536;-85
2021/09/01 16:41:02;;;;;;;14.18;6.87;;;;;;;15.62;93.71;99447.05;4008785;87;21076;-85
2021/09/01 16:47:04;;;;;;;11.93;7.30;;;;;;;15.53;93.60;99454.92;4003614;87;21060;-85
2021/09/01 16:53:19;;;;;;;12.63;6.85;;;;;;;15.43;93.91;99460.46;3999775;87;21095;-85
2021/09/01 16:59:47;;;;;;;12.82;7.08;;;;;;;15.32;94.02;99465.16;4003291;87;21088;-88
2021/09/01 17:06:02;;;;;;;12.45;7.03;;;;;;;15.24;94.40;99468.52;3993503;88;21628;-85
2021/09/01 17:12:18;;;;;;;14.38;7.92;;;;;;;15.12;94.67;99473.64;4002787;87;21082;-85
2021/09/01 17:18:20;;;;;;;16.60;8.15;;;;;;;15.04;94.64;99480.33;4002735;87;21036;-86
2021/09/01 17:24:22;;;;;;;12.45;7.90;;;;;;;14.90;95.01;99489.96;3997669;87;21187;-85
2021/09/01 17:30:27;;;;;;;14.20;7.97;;;;;;;14.79;94.80;99501.55;3981820;87;21046;-85
2021/09/01 17:36:28;;;;;;;12.80;8.75;;;;;;;14.66;94.84;99504.49;3996477;87;21091;-85
2021/09/01 17:42:30;;;;;;;17.52;8.60;;;;;;;14.51;95.11;99502.86;4002247;87;21107;-85
2021/09/01 17:48:31;;;;;;;14.63;10.43;;;;;;;14.34;95.24;99507.13;4000883;87;21218;-84
2021/09/01 17:54:52;;;;;;;21.12;10.38;;;;;;;14.20;95.36;99509.19;3993496;87;21030;-85
2021/09/01 18:00:53;;;;;;;18.92;11.20;;;;;;;14.09;95.71;99515.83;3998010;87;21612;-86
2021/09/01 18:07:01;;;;;;;20.75;12.13;;;;;;;13.95;95.80;99524.78;4001769;87;21094;-85
2021/09/01 18:13:05;;;;;;;19.05;11.65;;;;;;;13.92;96.25;99532.44;3984248;87;21090;-84
2021/09/01 18:19:06;;;;;;;18.37;10.48;;;;;;;13.85;96.40;99539.86;4060268;86;21561;-85
2021/09/01 18:25:26;;;;;;;19.40;11.12;;;;;;;13.80;96.81;99541.59;4063524;86;21538;-84
2021/09/01 18:31:29;;;;;;;17.35;10.82;;;;;;;13.82;97.42;99553.02;4056899;86;21069;-85
2021/09/01 18:37:31;;;;;;;22.85;11.48;;;;;;;13.83;97.57;99559.51;4047716;86;21565;-85
2021/09/01 18:43:36;;;;;;;23.75;11.60;;;;;;;13.85;97.98;99561.88;4065119;86;21595;-84
2021/09/01 18:49:44;;;;;;;19.90;11.38;;;;;;;13.91;98.15;99565.27;4033905;86;21142;-85
2021/09/01 18:55:46;;;;;;;18.30;9.68;;;;;;;13.90;98.53;99564.28;4063381;86;21598;-85
2021/09/01 19:01:55;;;;;;;17.48;10.20;;;;;;;13.93;98.60;99569.81;4053534;86;21070;-85
2021/09/01 19:08:10;;;;;;;21.27;12.00;;;;;;;13.98;98.71;99568.66;4037128;86;21048;-87
2021/09/01 19:14:16;;;;;;;16.82;10.08;;;;;;;13.99;98.55;99575.73;4017678;86;21096;-86
2021/09/01 19:20:18;;;;;;;18.05;10.85;;;;;;;14.00;98.54;99573.97;4012663;86;21564;-85
2021/09/01 19:33:08;;;;;;;19.60;10.98;;;;;;;14.00;98.77;99580.86;4004881;87;21587;-85
2021/09/01 19:39:12;;;;;;;;;;;;;;;14.01;98.87;99581.66;4001905;86;21536;-84
2021/09/01 19:45:15;;;;;;;21.48;10.45;;;;;;;13.99;99.13;99584.79;4009673;87;20165;-84
2021/09/01 19:51:16;;;;;;;17.85;10.85;;;;;;;13.99;99.00;99587.55;4011353;86;21064;-84
2021/09/01 19:57:21;;;;;;;17.77;10.38;;;;;;;14.00;99.09;99595.99;4007569;87;21480;-86
2021/09/01 20:03:24;;;;;;;22.27;9.78;;;;;;;14.01;99.05;99595.41;3999790;87;21699;-84
2021/09/01 20:09:26;;;;;;;15.78;8.93;;;;;;;14.00;99.17;99592.47;3895818;84;9999664;-85
2021/09/01 20:15:29;;;;;;;16.27;9.85;;;;;;;13.99;99.24;99597.17;4007012;87;21116;-85
2021/09/01 20:21:33;;;;;;;17.15;9.78;;;;;;;14.01;99.34;99595.41;4003069;87;21097;-87
2021/09/01 20:27:37;;;;;;;21.17;11.35;;;;;;;13.99;99.37;99597.17;4006174;87;21052;-85
2021/09/01 20:33:42;;;;;;;16.23;10.08;;;;;;;13.97;99.44;99602.27;4011743;87;21045;-84
2021/09/01 20:39:48;;;;;;;17.77;11.55;;;;;;;13.97;99.81;99606.39;4002128;87;21036;-85
2021/09/01 20:45:55;;;;;;;21.10;12.15;;;;;;;13.98;99.58;99612.70;4007853;87;21552;-85
2021/09/01 20:52:03;;;;;;;18.37;11.22;;;;;;;13.99;99.59;99626.08;4010435;87;21029;-84
2021/09/01 20:59:00;;;;;;;19.27;10.93;;;;;;;13.99;99.71;99627.45;4003293;87;21036;-85
2021/09/01 21:05:06;;;;;;;23.63;11.93;;;;;;;13.96;99.85;99641.19;4011960;87;21000;-85
2021/09/01 21:11:23;;;;;;;21.15;11.90;;;;;;;13.97;99.95;99640.00;4003844;87;21662;-85
2021/09/01 21:17:27;;;;;;;20.48;11.57;;;;;;;13.98;100.00;99635.48;4000327;87;21122;-85
2021/09/01 21:23:32;;;;;;;22.45;12.98;;;;;;;14.00;100.00;99642.02;3999415;87;21594;-85
2021/09/01 21:29:37;;;;;;;20.95;12.00;;;;;;;13.97;100.00;99646.88;3999912;87;21051;-85
2021/09/01 21:35:39;;;;;;;22.73;12.28;;;;;;;14.01;100.00;99653.22;3997002;87;21141;-85
2021/09/01 21:41:41;;;;;;;21.85;12.65;;;;;;;14.03;100.00;99659.14;3998883;87;21087;-86
2021/09/01 21:47:47;;;;;;;18.50;12.88;;;;;;;14.03;100.00;99656.39;3999946;87;21099;-85
2021/09/01 21:53:49;;;;;;;17.40;12.03;;;;;;;14.02;100.00;99655.59;3996792;87;21381;-84
2021/09/01 21:59:55;;;;;;;20.43;12.23;;;;;;;14.00;100.00;99655.17;3995175;87;21591;-85
2021/09/01 22:05:57;;;;;;;19.52;12.18;;;;;;;13.98;100.00;99652.00;3935236;89;21563;-85
2021/09/01 22:11:58;;;;;;;22.80;13.22;;;;;;;13.97;100.00;99659.27;3942875;88;21167;-84
2021/09/01 22:17:59;;;;;;;21.42;13.28;;;;;;;13.96;100.00;99657.70;3936792;88;21056;-84
2021/09/01 22:24:02;;;;;;;21.12;12.90;;;;;;;13.95;100.00;99655.52;3934034;88;21635;-85
2021/09/01 22:30:06;;;;;;;19.32;11.50;;;;;;;13.94;100.00;99658.08;3949323;88;21131;-85
2021/09/01 22:36:08;;;;;;;21.82;12.25;;;;;;;13.93;100.00;99663.97;3944690;88;21543;-84
2021/09/01 22:42:11;;;;;;;20.50;12.25;;;;;;;13.91;100.00;99666.30;3940016;88;21092;-84
2021/09/01 22:48:16;;;;;;;18.62;11.53;;;;;;;13.91;100.00;99658.84;3933434;88;21092;-84
2021/09/01 22:54:17;;;;;;;21.00;12.53;;;;;;;13.89;100.00;99648.02;3939869;88;21067;-85
2021/09/01 23:00:20;;;;;;;21.25;12.68;;;;;;;13.89;100.00;99658.42;3945416;88;21055;-84
2021/09/01 23:06:21;;;;;;;21.17;12.23;;;;;;;13.89;100.00;99654.91;3943884;88;21130;-85
2021/09/01 23:12:23;;;;;;;24.10;11.40;;;;;;;13.88;100.00;99650.55;3941252;88;21170;-84
2021/09/01 23:18:25;;;;;;;21.27;12.60;;;;;;;13.80;100.00;99644.78;3935318;88;21083;-85
2021/09/01 23:24:26;;;;;;;20.75;12.55;;;;;;;13.76;100.00;99637.89;3946553;88;21016;-85
2021/09/01 23:37:32;;;;;;;17.55;11.83;;;;;;;13.71;100.00;99629.98;3866334;88;21546;-84
2021/09/01 23:43:37;;;;;;;20.30;11.60;;;;;;;13.63;100.00;99624.21;3947373;88;21110;-85
2021/09/01 23:50:04;;;;;;;19.90;11.93;;;;;;;13.65;100.00;99612.25;3938926;88;21132;-84
2021/09/01 23:56:08;;;;;;;23.65;13.05;;;;;;;13.65;100.00;99610.08;3945030;88;21607;-85
